Dobrodošli na spletni strani vremenske postaje Senovo. Vse informacije so informativnega značaja, saj vremenska postaja ni del državne mreže meteoroloških postaj. AKTUALNIH OBVESTIL NI.


Posebna pozornost v zvezi z vremenskimi dogajanji ni potrebna.    Posebna pozornost v zvezi z vremenskimi dogajanji ni potrebna.

Pogled proti Armezu več informacij Pogled proti Armezu


Bohor več informacij Bohor


Radar strel več informacij blitzortung!


Radar padavin več informacij rain snow radar


Obiščite še:

Template documentation
and downloads

And another site



Weather Underground, zgodovina - Tekstovno

Dnevni povzetek za Juli 25, 2017 Enote:  Metrično    Angleško   Obe
« Predhodni Dan
Naslednji Dan »
Dnevni Tedenski Mesečni Letni Po meri
  Višja: Nižja: Povprečje:
Temperatura: -17.8 °C -10.1 °C -6.9 °C
Točka rosišča: -17.8 °C -12.6 °C -10.3 °C
Vlažnost: Humidity % 39 % 72 %
Hitrost vetra: 0 km/h 0 km/h 4.3 km/h
Sunki vetra: 0 km/h - -
Veter:- - South
Zračni tlak: 0 hPa 33992.1 hPa -
Padavine: 528.32 mm    
Historical Graphs
 
 
Tabelarni podarki za Juli 25, 2017
Čas Temperatura Točka rosišča Zračni tlak Veter Hitrost vetra Sunki vetra Vlažnost Intenziteta padavin (urna)
-17.8 °C -17.8 °C 0 hPa Calm     Humidity % 0 mm
00:03 -8.2 °C -9.1 °C 34097 hPa WSW 3.4 km/h 5.1 km/h 91 % 0 mm
00:08 -8.2 °C -9.1 °C 34097 hPa SSW 2.9 km/h 5.1 km/h 91 % 0 mm
00:13 -8.2 °C -8.9 °C 34097 hPa SSW 2.9 km/h 7.6 km/h 92 % 0 mm
00:18 -8.2 °C -8.9 °C 34097 hPa SW 3.1 km/h 7.6 km/h 92 % 0 mm
00:23 -8.3 °C -9 °C 34063.2 hPa WSW 4.3 km/h 9.8 km/h 92 % 0 mm
00:28 -8.3 °C -9 °C 34063.2 hPa West 5.6 km/h 9.8 km/h 92 % 0 mm
00:33 -8.3 °C -9 °C 34063.2 hPa NNE 3.7 km/h 6.9 km/h 92 % 0 mm
00:38 -8.3 °C -9 °C 34063.2 hPa WNW 1.6 km/h 6.9 km/h 92 % 0 mm
00:43 -8.3 °C -9 °C 34063.2 hPa WNW 1 km/h 6.9 km/h 92 % 0 mm
00:48 -8.2 °C -8.9 °C 34063.2 hPa SE 2.3 km/h 9.3 km/h 92 % 0 mm
00:53 -8.2 °C -8.9 °C 34029.3 hPa SSE 4.3 km/h 9.3 km/h 92 % 0 mm
00:58 -8.2 °C -8.9 °C 34029.3 hPa South 2.1 km/h 9.3 km/h 92 % 0 mm
01:03 -8.2 °C -8.9 °C 34029.3 hPa Calm   2.3 km/h 92 % 0 mm
01:08 -8.3 °C -9 °C 34063.2 hPa Calm   2.3 km/h 92 % 0 mm
01:13 -8.3 °C -9 °C 34063.2 hPa Calm   3.4 km/h 92 % 0 mm
01:18 -8.3 °C -9 °C 34063.2 hPa Calm   3.4 km/h 92 % 0 mm
01:23 -8.3 °C -8.9 °C 34063.2 hPa Calm     93 % 0 mm
01:28 -8.3 °C -9 °C 34063.2 hPa Calm     92 % 0 mm
01:33 -8.3 °C -9 °C 34063.2 hPa Calm     92 % 0 mm
01:38 -8.3 °C -8.9 °C 34063.2 hPa Calm     93 % 0 mm
01:43 -8.3 °C -8.9 °C 34063.2 hPa SW 0.3 km/h 2.9 km/h 93 % 0 mm
01:48 -8.3 °C -9 °C 34063.2 hPa WSW 0.8 km/h 2.9 km/h 93 % 0 mm
01:53 -8.3 °C -9 °C 34063.2 hPa WSW 0.5 km/h 2.9 km/h 93 % 0 mm
01:58 -8.3 °C -9 °C 34063.2 hPa Calm     93 % 0 mm
02:03 -8.3 °C -9 °C 34063.2 hPa WNW 0.5 km/h 3.4 km/h 93 % 0 mm
02:08 -8.4 °C -9 °C 34063.2 hPa West 0.8 km/h 3.4 km/h 93 % 0 mm
02:13 -8.4 °C -9 °C 34063.2 hPa West 0.5 km/h 2.9 km/h 93 % 0 mm
02:18 -8.4 °C -9 °C 34063.2 hPa North 0.5 km/h   93 % 0 mm
02:23 -8.4 °C -9.1 °C 34063.2 hPa WSW 1.3 km/h 5.1 km/h 93 % 0 mm
02:28 -8.4 °C -9.1 °C 34063.2 hPa WSW 2.1 km/h 5.1 km/h 93 % 0 mm
02:33 -8.4 °C -9.1 °C 34063.2 hPa North 0.3 km/h   93 % 0 mm
02:38 -8.5 °C -9.1 °C 34063.2 hPa NNW 0.3 km/h 6.4 km/h 93 % 0 mm
02:43 -8.5 °C -9.1 °C 34063.2 hPa NW 0.8 km/h 6.4 km/h 93 % 0 mm
02:48 -8.6 °C -9.2 °C 34063.2 hPa NW 0.5 km/h 4.2 km/h 93 % 0 mm
02:53 -8.6 °C -9.2 °C 34063.2 hPa Calm     93 % 0 mm
02:58 -8.6 °C -9.2 °C 34063.2 hPa Calm     93 % 0 mm
03:03 -8.6 °C -9.2 °C 34063.2 hPa Calm     93 % 0 mm
03:08 -8.7 °C -9.3 °C 34029.3 hPa Calm     93 % 0 mm
03:13 -8.7 °C -9.3 °C 34029.3 hPa North 0.5 km/h   93 % 0 mm
03:18 -8.7 °C -9.3 °C 34029.3 hPa North 0.8 km/h   93 % 0 mm
03:23 -8.7 °C -9.3 °C 34063.2 hPa Calm   3.4 km/h 93 % 0 mm
03:28 -8.8 °C -9.4 °C 34063.2 hPa Calm   3.4 km/h 93 % 0 mm
03:33 -8.8 °C -9.4 °C 34063.2 hPa Calm   3.4 km/h 93 % 0 mm
03:38 -8.8 °C -9.6 °C 34063.2 hPa Calm     92 % 0 mm
03:44 -8.8 °C -9.6 °C 34063.2 hPa Calm     92 % 0 mm
03:49 -8.9 °C -9.6 °C 34063.2 hPa NW 1 km/h 6.4 km/h 92 % 0 mm
03:54 -8.9 °C -9.6 °C 34063.2 hPa NW 1.8 km/h 6.4 km/h 93 % 0 mm
03:59 -8.9 °C -9.6 °C 34063.2 hPa WNW 1.6 km/h 6.4 km/h 93 % 0 mm
04:04 -8.9 °C -9.6 °C 34063.2 hPa Calm     93 % 0 mm
04:09 -8.9 °C -9.6 °C 34097 hPa Calm     93 % 0 mm
04:14 -9 °C -9.6 °C 34097 hPa WNW 0.3 km/h 5.6 km/h 93 % 0 mm
04:19 -9 °C -9.6 °C 34097 hPa WNW 0.8 km/h 5.6 km/h 93 % 0 mm
04:24 -9.1 °C -9.7 °C 34063.2 hPa NW 2.1 km/h 6.4 km/h 93 % 0 mm
04:29 -9.1 °C -9.8 °C 34063.2 hPa WNW 3.9 km/h 6.4 km/h 93 % 0 mm
04:34 -9.1 °C -9.8 °C 34063.2 hPa West 3.7 km/h 6.4 km/h 93 % 0 mm
04:39 -9.2 °C -9.8 °C 34063.2 hPa NW 2.1 km/h 6.4 km/h 93 % 0 mm
04:44 -9.2 °C -9.8 °C 34063.2 hPa NW 1 km/h 6.4 km/h 93 % 0 mm
04:49 -9.2 °C -9.8 °C 34063.2 hPa Calm     93 % 0 mm
04:54 -9.2 °C -9.8 °C 34063.2 hPa Calm     93 % 0 mm
04:59 -9.3 °C -9.9 °C 34063.2 hPa Calm   3.4 km/h 93 % 0 mm
05:04 -9.3 °C -9.9 °C 34063.2 hPa Calm   3.4 km/h 93 % 0 mm
05:09 -9.3 °C -9.9 °C 34063.2 hPa Calm     93 % 0 mm
05:14 -9.4 °C -10 °C 34063.2 hPa Calm     93 % 0 mm
05:19 -9.4 °C -10 °C 34063.2 hPa Calm     93 % 0 mm
05:24 -9.4 °C -10 °C 34063.2 hPa SW 1.6 km/h 6.9 km/h 93 % 0 mm
05:29 -9.5 °C -10.1 °C 34063.2 hPa SW 2.1 km/h 6.9 km/h 93 % 0 mm
05:34 -9.6 °C -10.2 °C 34063.2 hPa North 0.5 km/h   93 % 0 mm
05:39 -9.6 °C -10.2 °C 34063.2 hPa NW 0.3 km/h 6.4 km/h 93 % 0 mm
05:44 -9.6 °C -10.2 °C 34063.2 hPa NW 1.8 km/h 6.4 km/h 93 % 0 mm
05:49 -9.7 °C -10.3 °C 34063.2 hPa NW 2.1 km/h 6.4 km/h 93 % 0 mm
05:54 -9.7 °C -10.3 °C 34063.2 hPa NW 0.5 km/h 4.2 km/h 93 % 0 mm
05:59 -9.8 °C -10.4 °C 34063.2 hPa Calm     93 % 0 mm
06:04 -9.8 °C -10.4 °C 34063.2 hPa NW 1.6 km/h 8 km/h 93 % 0 mm
06:09 -9.8 °C -10.4 °C 34063.2 hPa NW 3.4 km/h 8 km/h 93 % 0 mm
06:14 -9.9 °C -10.5 °C 34063.2 hPa NW 2.9 km/h 8 km/h 93 % 0 mm
06:19 -9.9 °C -10.5 °C 34063.2 hPa NNW 0.5 km/h 8 km/h 93 % 0 mm
06:24 -9.9 °C -10.5 °C 34063.2 hPa NNW 1.3 km/h 8 km/h 93 % 0 mm
06:29 -9.8 °C -10.4 °C 34063.2 hPa NNW 0.5 km/h 8 km/h 93 % 0 mm
06:34 -9.8 °C -10.4 °C 34063.2 hPa NW 0.3 km/h 2.3 km/h 93 % 0 mm
06:39 -9.8 °C -10.4 °C 34063.2 hPa North 0.3 km/h   93 % 0 mm
06:44 -9.8 °C -10.4 °C 34063.2 hPa WNW 1.8 km/h 4.2 km/h 93 % 0 mm
06:49 -9.8 °C -10.4 °C 34063.2 hPa WNW 2.1 km/h 4.2 km/h 93 % 0 mm
06:54 -9.7 °C -10.3 °C 34063.2 hPa North 0.3 km/h   93 % 0 mm
06:59 -9.7 °C -10.3 °C 34063.2 hPa Calm     93 % 0 mm
07:04 -9.6 °C -10.2 °C 34063.2 hPa Calm     93 % 0 mm
07:09 -9.6 °C -10.2 °C 34063.2 hPa Calm     93 % 0 mm
07:14 -9.5 °C -10.1 °C 34063.2 hPa Calm     93 % 0 mm
07:19 -9.4 °C -10.2 °C 34063.2 hPa Calm     92 % 0 mm
07:24 -9.4 °C -10.1 °C 34063.2 hPa Calm     92 % 0 mm
07:29 -9.4 °C -10.1 °C 34063.2 hPa Calm     92 % 0 mm
07:34 -9.3 °C -10.1 °C 34063.2 hPa Calm     92 % 0 mm
07:39 -9.2 °C -9.9 °C 34097 hPa Calm     92 % 0 mm
07:44 -9.2 °C -9.9 °C 34097 hPa Calm     92 % 0 mm
07:49 -9.1 °C -9.8 °C 34097 hPa Calm     92 % 0 mm
07:54 -9 °C -9.7 °C 34063.2 hPa Calm     92 % 0 mm
07:59 -8.9 °C -9.7 °C 34063.2 hPa Calm     91 % 0 mm
08:04 -8.8 °C -9.7 °C 34063.2 hPa Calm     91 % 0 mm
08:09 -8.8 °C -9.6 °C 34097 hPa Calm     91 % 0 mm
08:14 -8.7 °C -9.5 °C 34097 hPa Calm     91 % 0 mm
08:19 -8.6 °C -9.4 °C 34097 hPa Calm     91 % 0 mm
08:24 -8.6 °C -9.5 °C 34097 hPa Calm     90 % 0 mm
08:29 -8.5 °C -9.4 °C 34097 hPa Calm     90 % 0 mm
08:34 -8.4 °C -9.3 °C 34097 hPa Calm     90 % 0 mm
08:39 -8.4 °C -9.3 °C 34097 hPa Calm     90 % 0 mm
08:44 -8.3 °C -9.3 °C 34097 hPa Calm     89 % 0 mm
08:49 -8.2 °C -9.2 °C 34097 hPa Calm     89 % 0 mm
08:54 -8.2 °C -9.2 °C 34097 hPa Calm     89 % 0 mm
08:59 -8 °C -9 °C 34097 hPa Calm     89 % 0 mm
09:04 -7.8 °C -8.8 °C 34097 hPa Calm     89 % 0 mm
09:09 -7.6 °C -8.7 °C 34097 hPa Calm     88 % 0 mm
09:14 -7.3 °C -8.4 °C 34097 hPa Calm     88 % 0 mm
09:19 -7.2 °C -8.8 °C 34097 hPa WNW 5.1 km/h 5.1 km/h 84 % 0 mm
09:24 -7.1 °C -8.7 °C 34097 hPa WNW 5.1 km/h 5.1 km/h 84 % 0 mm
09:29 -6.9 °C -8.6 °C 34097 hPa WNW 5.1 km/h 5.1 km/h 83 % 0 mm
09:34 -6.6 °C -8.5 °C 34097 hPa WNW 5.1 km/h 5.1 km/h 81 % 0 mm
09:39 -6.4 °C -8.4 °C 34097 hPa WNW 5.1 km/h 5.1 km/h 80 % 0 mm
09:44 -6.2 °C -8.3 °C 34097 hPa WNW 5.1 km/h 5.1 km/h 79 % 0 mm
09:49 -6.1 °C -8.6 °C 34097 hPa SE 5.1 km/h 5.1 km/h 76 % 0 mm
09:54 -5.9 °C -8.4 °C 34063.2 hPa SE 5.1 km/h 5.1 km/h 76 % 0 mm
09:59 -5.8 °C -8.5 °C 34063.2 hPa SSE 6.9 km/h 9.8 km/h 74 % 0 mm
10:04 -5.8 °C -8.4 °C 34063.2 hPa South 6.9 km/h 9.8 km/h 74 % 0 mm
10:09 -5.6 °C -8.8 °C 34063.2 hPa South 4.7 km/h 9.8 km/h 70 % 0 mm
10:14 -5.5 °C -8.6 °C 34063.2 hPa ESE 3.7 km/h 9.3 km/h 71 % 0 mm
10:19 -5.4 °C -8.4 °C 34063.2 hPa East 4.3 km/h 8 km/h 71 % 0 mm
10:24 -5.2 °C -8.6 °C 34063.2 hPa ESE 6 km/h 14 km/h 69 % 0 mm
10:29 -5.2 °C -8.9 °C 34063.2 hPa ESE 5.5 km/h 14 km/h 66 % 0 mm
10:34 -5.2 °C -9.1 °C 34063.2 hPa ESE 6.3 km/h 14 km/h 64 % 0 mm
10:39 -5 °C -9 °C 34063.2 hPa East 8 km/h 8 km/h 64 % 0 mm
10:44 -5 °C -9.1 °C 34063.2 hPa SE 6.3 km/h 6.3 km/h 63 % 0 mm
10:49 -4.9 °C -9.6 °C 34063.2 hPa South 4.3 km/h 5.6 km/h 59 % 0 mm
10:54 -4.8 °C -9.4 °C 34029.3 hPa ESE 2.6 km/h 8.9 km/h 60 % 0 mm
10:59 -4.9 °C -9.6 °C 34029.3 hPa East 2.6 km/h 8.9 km/h 59 % 0 mm
11:04 -4.8 °C -9.7 °C 34029.3 hPa ESE 2.9 km/h 8.9 km/h 58 % 0 mm
11:09 -4.8 °C -9.8 °C 34063.2 hPa SSE 5.5 km/h 8.9 km/h 57 % 0 mm
11:14 -4.7 °C -10.1 °C 34063.2 hPa ESE 8.2 km/h 8.2 km/h 55 % 0 mm
11:19 -4.7 °C -9.9 °C 34063.2 hPa East 10.1 km/h 10.1 km/h 56 % 0 mm
11:24 -4.6 °C -9.8 °C 34063.2 hPa East 8.2 km/h 8.2 km/h 56 % 0 mm
11:29 -4.6 °C -9.8 °C 34063.2 hPa ESE 7.2 km/h 11.1 km/h 56 % 0 mm
11:34 -4.4 °C -9.9 °C 34063.2 hPa SE 10.9 km/h 11.1 km/h 54 % 0 mm
11:39 -4.3 °C -10 °C 34063.2 hPa South 9.7 km/h 12.7 km/h 53 % 0 mm
11:44 -4.3 °C -9.9 °C 34063.2 hPa SW 8.5 km/h 12.7 km/h 53 % 0 mm
11:49 -4.3 °C -10.4 °C 34063.2 hPa SW 7.2 km/h 11.1 km/h 50 % 0 mm
11:54 -4.3 °C -10.4 °C 34063.2 hPa SSW 5 km/h 9.3 km/h 50 % 0 mm
11:59 -4.2 °C -10.3 °C 34063.2 hPa SW 4.2 km/h 9.3 km/h 50 % 0 mm
12:04 -4.1 °C -10.1 °C 34063.2 hPa SE 7.2 km/h 16.9 km/h 51 % 0 mm
12:09 -3.8 °C -10.1 °C 34029.3 hPa ESE 10.1 km/h 16.9 km/h 50 % 0 mm
12:14 -3.9 °C -10.4 °C 34029.3 hPa ESE 8 km/h 14.5 km/h 48 % 0 mm
12:19 -4 °C -10.7 °C 34029.3 hPa SE 7.2 km/h 14.5 km/h 47 % 0 mm
12:24 -3.8 °C -10.3 °C 34029.3 hPa SSE 10.3 km/h 19.2 km/h 48 % 0 mm
12:29 -3.6 °C -10.2 °C 34029.3 hPa SE 10.1 km/h 19.2 km/h 48 % 0 mm
12:34 -3.3 °C -9.9 °C 34029.3 hPa ESE 9.3 km/h 22.5 km/h 48 % 0 mm
12:39 -3.2 °C -10.2 °C 34063.2 hPa ESE 11.6 km/h 22.5 km/h 46 % 0 mm
12:44 -3.3 °C -10.2 °C 34063.2 hPa ESE 14 km/h 22.5 km/h 46 % 0 mm
12:49 -3.6 °C -10.7 °C 34063.2 hPa SE 12.9 km/h 22.5 km/h 45 % 0 mm
12:54 -3.7 °C -11.2 °C 34063.2 hPa SE 7.7 km/h 19.2 km/h 43 % 0 mm
12:59 -3.4 °C -10.8 °C 34063.2 hPa ESE 6.3 km/h 16.3 km/h 44 % 0 mm
13:00 -3.5 °C -10.8 °C 34063.2 hPa ESE 6.8 km/h 16.3 km/h 44 % 0 mm
13:05 -3.5 °C -10.8 °C 34063.2 hPa ESE 7.7 km/h 15.6 km/h 44 % 0 mm
13:10 -3.3 °C -10.7 °C 34063.2 hPa ESE 8.9 km/h 23.8 km/h 44 % 0 mm
13:15 -3.2 °C -10.6 °C 34063.2 hPa ESE 8.2 km/h 23.8 km/h 44 % 0 mm
13:20 -3.2 °C -10.6 °C 34063.2 hPa SE 10.3 km/h 24.8 km/h 44 % 0 mm
13:25 -3.2 °C -10.6 °C 34097 hPa SE 8.9 km/h 24.8 km/h 44 % 0 mm
13:30 -3.2 °C -10.6 °C 34097 hPa SE 6 km/h 10.3 km/h 44 % 0 mm
13:35 -3.2 °C -10.6 °C 34097 hPa SSE 6.8 km/h 10.3 km/h 44 % 0 mm
13:40 -3.2 °C -10.6 °C 34063.2 hPa SSW 6.3 km/h 9.8 km/h 44 % 0 mm
13:45 -3.2 °C -10.6 °C 34063.2 hPa SSW 6.8 km/h 10.3 km/h 44 % 0 mm
13:50 -3.2 °C -10.6 °C 34063.2 hPa SW 7.7 km/h 14.5 km/h 44 % 0 mm
13:55 -3.2 °C -10.6 °C 34063.2 hPa SW 8.9 km/h 15.6 km/h 44 % 0 mm
14:00 -3.2 °C -10.6 °C 34063.2 hPa South 8 km/h 15.6 km/h 44 % 0 mm
14:05 -3.2 °C -10.6 °C 34063.2 hPa ESE 8.2 km/h 19.6 km/h 44 % 0 mm
14:10 -3.2 °C -10.6 °C 34063.2 hPa ESE 9.8 km/h 15.6 km/h 44 % 0 mm
14:15 -3.2 °C -10.6 °C 34063.2 hPa ESE 8 km/h 15 km/h 44 % 0 mm
14:20 -3.2 °C -10.6 °C 34063.2 hPa East 6.3 km/h 12.7 km/h 44 % 0 mm
14:25 -3.2 °C -10.6 °C 34063.2 hPa ENE 5.6 km/h 12.7 km/h 44 % 0 mm
14:30 -4.1 °C -11.3 °C 34063.2 hPa ENE 5 km/h 12.7 km/h 44 % 0 mm
14:35 -4.1 °C -11.3 °C 34063.2 hPa ESE 4.3 km/h 12.2 km/h 44 % 0 mm
14:40 -4.1 °C -11.6 °C 34063.2 hPa SE 4.7 km/h 12.2 km/h 43 % 0 mm
14:45 -4.1 °C -11.3 °C 34063.2 hPa SE 5 km/h 14 km/h 44 % 0 mm
14:50 -3.8 °C -11.3 °C 34063.2 hPa SE 6.8 km/h 14 km/h 43 % 0 mm
14:55 -3.6 °C -10.9 °C 34063.2 hPa SE 9.8 km/h 19.2 km/h 44 % 0 mm
15:01 -3.3 °C -10.9 °C 34063.2 hPa SE 11.9 km/h 20.9 km/h 43 % 0 mm
15:05 -3.2 °C -10.9 °C 34029.3 hPa SE 9.7 km/h 20.9 km/h 42 % 0 mm
15:10 -3 °C -10.8 °C 34029.3 hPa SE 6.8 km/h 19.6 km/h 42 % 0 mm
15:15 -2.9 °C -10.9 °C 34029.3 hPa SSW 7.6 km/h 16.9 km/h 41 % 0 mm
15:20 -2.9 °C -10.9 °C 34029.3 hPa SSW 9.3 km/h 20.9 km/h 41 % 0 mm
15:25 -2.8 °C -10.8 °C 34029.3 hPa SSE 8.2 km/h 20.9 km/h 41 % 0 mm
15:30 -2.8 °C -11 °C 34029.3 hPa SSE 8 km/h 15.6 km/h 40 % 0 mm
15:36 -2.7 °C -10.9 °C 34029.3 hPa SE 5.6 km/h 14 km/h 40 % 0 mm
15:41 -2.6 °C -10.8 °C 34029.3 hPa SE 5.5 km/h 19.2 km/h 40 % 0 mm
15:46 -2.4 °C -10.7 °C 34029.3 hPa SE 8.5 km/h 19.2 km/h 40 % 0 mm
15:51 -2.3 °C -10.6 °C 34029.3 hPa SE 6.9 km/h 15 km/h 40 % 0 mm
15:56 -2.3 °C -10.5 °C 34029.3 hPa SE 7.6 km/h 16.3 km/h 40 % 0 mm
16:01 -2.6 °C -11.1 °C 34029.3 hPa ENE 10.6 km/h 31.4 km/h 39 % 0 mm
16:06 -2.6 °C -11.1 °C 34029.3 hPa ENE 11.1 km/h 31.4 km/h 39 % 0 mm
16:11 -2.7 °C -11.2 °C 34029.3 hPa ESE 10.6 km/h 31.4 km/h 39 % 0 mm
16:16 -3 °C -11.2 °C 34029.3 hPa ESE 9 km/h 12.7 km/h 40 % 0 mm
16:21 -3 °C -11.2 °C 34029.3 hPa ENE 6.9 km/h 22.5 km/h 40 % 0 mm
16:26 -3.2 °C -11.3 °C 34029.3 hPa ENE 6.9 km/h 22.5 km/h 40 % 0 mm
16:31 -3.2 °C -11.3 °C 34029.3 hPa ENE 10.3 km/h 15 km/h 40 % 0 mm
16:36 -3.2 °C -11.3 °C 34029.3 hPa ENE 10.3 km/h 15 km/h 40 % 0 mm
16:41 -3.4 °C -11.5 °C 34029.3 hPa NE 10.3 km/h 14.5 km/h 40 % 0 mm
16:46 -3.6 °C -11.7 °C 34029.3 hPa ESE 7.2 km/h 14.5 km/h 40 % 0 mm
16:51 -3.7 °C -11.6 °C 33992.1 hPa East 6.4 km/h 15.6 km/h 41 % 0 mm
16:56 -3.9 °C -12 °C 33992.1 hPa East 6.4 km/h 15.6 km/h 40 % 0 mm
17:01 -4.1 °C -11.9 °C 33992.1 hPa ENE 7.7 km/h 15.6 km/h 41 % 0 mm
17:06 -4.2 °C -11.8 °C 33992.1 hPa ENE 8 km/h 15 km/h 42 % 0 mm
17:07 -4.2 °C -11.8 °C 33992.1 hPa ENE 8.2 km/h 15 km/h 42 % 0 mm
17:12 -4.3 °C -11.9 °C 33992.1 hPa East 6.4 km/h 14.5 km/h 42 % 0 mm
17:17 -4.3 °C -11.9 °C 33992.1 hPa East 5.1 km/h 11.1 km/h 42 % 0 mm
17:22 -4.4 °C -12 °C 33992.1 hPa ESE 4.7 km/h 11.1 km/h 42 % 0 mm
17:27 -4.2 °C -11.8 °C 33992.1 hPa ESE 6.8 km/h 14 km/h 42 % 0 mm
17:32 -3.8 °C -11.5 °C 33992.1 hPa ESE 8.9 km/h 24.8 km/h 42 % 0 mm
17:37 -3.6 °C -11.5 °C 33992.1 hPa ESE 12.4 km/h 24.8 km/h 41 % 0 mm
17:42 -3.6 °C -11.5 °C 33992.1 hPa East 12.9 km/h 22.5 km/h 41 % 0 mm
17:43 -3.6 °C -11.5 °C 33992.1 hPa East 12.4 km/h 22.5 km/h 41 % 0 mm
17:48 -3.7 °C -11.6 °C 33992.1 hPa ESE 9 km/h 22.5 km/h 41 % 0 mm
17:53 -3.6 °C -11.3 °C 33992.1 hPa East 8 km/h 16.9 km/h 42 % 0 mm
17:58 -3.5 °C -11.4 °C 33992.1 hPa East 8.5 km/h 14.5 km/h 41 % 0 mm
18:03 -3.6 °C -11.5 °C 33992.1 hPa ENE 9.3 km/h 16.9 km/h 41 % 0 mm
18:08 -3.9 °C -11.6 °C 33992.1 hPa ENE 9.3 km/h 16.9 km/h 42 % 0 mm
18:13 -4.1 °C -11.8 °C 33992.1 hPa East 10.6 km/h 20.9 km/h 42 % 0 mm
18:18 -4.3 °C -11.9 °C 33992.1 hPa East 9.8 km/h 20.9 km/h 42 % 0 mm
18:23 -4.4 °C -12 °C 33992.1 hPa East 7.2 km/h 12.2 km/h 42 % 0 mm
18:28 -4.5 °C -11.9 °C 33992.1 hPa ENE 8 km/h 19.6 km/h 43 % 0 mm
18:33 -4.6 °C -12 °C 33992.1 hPa ENE 6.9 km/h 19.6 km/h 43 % 0 mm
18:38 -4.7 °C -12.1 °C 33992.1 hPa East 8 km/h 20.3 km/h 43 % 0 mm
18:43 -4.8 °C -12.1 °C 33992.1 hPa East 11.4 km/h 22.5 km/h 44 % 0 mm
18:48 -4.9 °C -12.1 °C 33992.1 hPa ENE 12.4 km/h 25.4 km/h 44 % 0 mm
18:53 -5.1 °C -12.1 °C 33992.1 hPa East 10.6 km/h 25.4 km/h 45 % 0 mm
18:58 -5.2 °C -12.1 °C 33992.1 hPa ENE 7.2 km/h 19.6 km/h 45 % 0 mm
19:03 -5.3 °C -12.1 °C 33992.1 hPa NNE 6 km/h 19.6 km/h 46 % 0 mm
19:08 -5.4 °C -12 °C 34029.3 hPa North 6.4 km/h 16.3 km/h 47 % 0 mm
19:13 -5.6 °C -12.2 °C 34029.3 hPa North 10.1 km/h 16.3 km/h 47 % 0 mm
19:18 -5.8 °C -12.3 °C 34029.3 hPa NNW 13.2 km/h 16.3 km/h 47 % 0 mm
19:23 -6 °C -12.6 °C 34029.3 hPa NNW 14 km/h 14 km/h 47 % 0 mm
19:33 -6.6 °C -12.4 °C 34029.3 hPa NNW 14 km/h 14 km/h 51 % 0 mm
19:38 -7.1 °C -12 °C 34097 hPa NNW 14 km/h 14 km/h 57 % 12.7 mm
19:44 -7.2 °C -11.8 °C 34097 hPa NNW 14 km/h 14 km/h 59 % 25.4 mm
19:45 -7.7 °C -11.6 °C 34097 hPa NNW 14 km/h 14 km/h 64 % 76.2 mm
19:50 -8.1 °C -11.6 °C 34097 hPa NW 9.7 km/h 12.7 km/h 66 % 116.84 mm
19:55 -8.2 °C -11.3 °C 34097 hPa NW 10.1 km/h 12.7 km/h 69 % 58.42 mm
20:00 -8.4 °C -11.4 °C 34097 hPa WSW 6.8 km/h 11.1 km/h 71 % 226.06 mm
20:05 -8.6 °C -11.3 °C 34130.9 hPa WSW 7.6 km/h 11.1 km/h 73 % 226.06 mm
20:10 -8.7 °C -11.2 °C 34130.9 hPa SW 8 km/h 11.1 km/h 75 % 297.18 mm
20:16 -8.8 °C -11.2 °C 34130.9 hPa WSW 5.6 km/h 10.9 km/h 75 % 58.42 mm
20:21 -9 °C -11.3 °C 34130.9 hPa SW 9.8 km/h 11.1 km/h 76 % 58.42 mm
20:26 -9.1 °C -11.1 °C 34130.9 hPa SW 12.2 km/h 12.2 km/h 79 % 386.08 mm
20:31 -9.1 °C -11.2 °C 34130.9 hPa WSW 3.9 km/h 10.9 km/h 79 % 373.38 mm
20:36 -9.2 °C -11.1 °C 34130.9 hPa SW 1.3 km/h 5.6 km/h 80 % 393.7 mm
20:41 -9.2 °C -11.2 °C 34130.9 hPa SSW 0.5 km/h 5.1 km/h 80 % 393.7 mm
20:46 -9.3 °C -11.1 °C 34130.9 hPa SSE 0.3 km/h 5.1 km/h 81 % 330.2 mm
20:51 -9.3 °C -11.2 °C 34130.9 hPa Calm   5.1 km/h 81 % 381 mm
20:56 -9.4 °C -11.2 °C 34130.9 hPa Calm   5.1 km/h 81 % 231.14 mm
21:01 -9.4 °C -11 °C 34130.9 hPa ESE 1.8 km/h 8 km/h 83 % 231.14 mm
21:06 -9.4 °C -11 °C 34130.9 hPa East 3.9 km/h 11.6 km/h 83 % 193.04 mm
21:11 -9.4 °C -10.9 °C 34130.9 hPa ESE 6 km/h 11.6 km/h 84 % 419.1 mm
21:16 -9.4 °C -10.9 °C 34130.9 hPa ENE 8 km/h 15.6 km/h 84 % 431.8 mm
21:21 -9.4 °C -10.8 °C 34130.9 hPa ENE 7.6 km/h 15.6 km/h 85 % 121.92 mm
21:26 -9.5 °C -10.9 °C 34164.7 hPa ENE 6.9 km/h 15.6 km/h 85 % 147.32 mm
21:31 -9.6 °C -10.9 °C 34164.7 hPa ESE 6.3 km/h 8.9 km/h 85 % 147.32 mm
21:36 -9.6 °C -10.9 °C 34164.7 hPa West 6.4 km/h 9.8 km/h 86 % 109.22 mm
21:41 -9.6 °C -10.9 °C 34130.9 hPa West 3.7 km/h 9.8 km/h 86 % 96.52 mm
21:46 -9.6 °C -10.9 °C 34130.9 hPa West 2.6 km/h 6.9 km/h 86 % 91.44 mm
21:51 -9.6 °C -10.8 °C 34130.9 hPa West 1.8 km/h 6.9 km/h 87 % 83.82 mm
21:56 -9.6 °C -10.8 °C 34130.9 hPa Calm   4.2 km/h 87 % 76.2 mm
22:01 -9.7 °C -10.9 °C 34130.9 hPa North 0.8 km/h 7.6 km/h 87 % 63.5 mm
22:06 -9.7 °C -10.8 °C 34097 hPa North 1.6 km/h 3.4 km/h 88 % 63.5 mm
22:11 -9.7 °C -10.8 °C 34097 hPa NNW 2.1 km/h 6.9 km/h 88 % 45.72 mm
22:16 -9.7 °C -10.8 °C 34097 hPa NW 1 km/h 6.9 km/h 88 % 33.02 mm
22:21 -9.7 °C -10.8 °C 34130.9 hPa Calm     88 % 12.7 mm
22:26 -9.7 °C -10.8 °C 34130.9 hPa Calm     88 % 7.62 mm
22:31 -9.7 °C -10.7 °C 34130.9 hPa SW 2.3 km/h 8 km/h 89 % 7.62 mm
22:36 -9.7 °C -10.7 °C 34097 hPa WSW 4.7 km/h 8 km/h 89 % 7.62 mm
22:41 -9.7 °C -10.7 °C 34097 hPa West 2.6 km/h 7.6 km/h 89 % 7.62 mm
22:46 -9.8 °C -10.8 °C 34097 hPa Calm   3.4 km/h 89 % 7.62 mm
22:51 -9.8 °C -10.7 °C 34097 hPa Calm   3.4 km/h 90 % 7.62 mm
22:56 -9.8 °C -10.7 °C 34097 hPa Calm     90 % 0 mm
23:01 -9.8 °C -10.7 °C 34097 hPa Calm     90 % 0 mm
23:06 -9.8 °C -10.7 °C 34130.9 hPa Calm   2.9 km/h 90 % 0 mm
23:11 -9.8 °C -10.7 °C 34130.9 hPa SSE 0.5 km/h 4.2 km/h 90 % 0 mm
23:16 -9.8 °C -10.7 °C 34130.9 hPa SSE 0.5 km/h 4.2 km/h 90 % 0 mm
23:22 -9.9 °C -10.8 °C 34130.9 hPa SE 0.3 km/h 3.4 km/h 90 % 0 mm
23:26 -9.9 °C -10.8 °C 34130.9 hPa SE 0.3 km/h 3.4 km/h 90 % 0 mm
23:32 -9.9 °C -10.8 °C 34130.9 hPa Calm     90 % 0 mm
23:37 -10 °C -10.9 °C 34130.9 hPa NNW 0.5 km/h 5.6 km/h 90 % 0 mm
23:42 -10 °C -10.9 °C 34130.9 hPa NW 1 km/h 5.6 km/h 90 % 0 mm
23:47 -10 °C -10.8 °C 34130.9 hPa NW 0.8 km/h 5.6 km/h 91 % 0 mm
23:51 -10.1 °C -10.9 °C 34130.9 hPa West 0.3 km/h 4.2 km/h 91 % 0 mm
23:56 -10.1 °C -10.9 °C 34130.9 hPa West 0.3 km/h 4.2 km/h 91 % 0 mm
Vremenska postaja Senovo
Podatki zbrani iz Weather Underground - 3 mb

Script developed by  Jim McMurry - jmcmurry@mwt.net Adapted for the template by  Wim van der Kuil - Leuven-Template.eu

Vremenski podatki so objavljeni na:

European Weather Network

WeatherCloud

Weather Underground

AWEKAS

HAMweather, WeatherForYou, PWS Weather

MapView

Geostik

Slovenia weather network

Oprema, ki se uporablja:

Vremenski program
Cumulus

Vremenski server
Asus

Cumulus

Asus